Haddenham, United Kingdom
Current Conditions -  °F | °C
As of 1:53 PM on Saturday 25 Oct 2014 (Local Time) from EGUB Reporting Station
Broken Clouds Broken Clouds  
Wind Chill: 14°   Ceiling: 5000
Heat Index: 14°   Visibility: 6mi
Dew Point:   Wind: 12mph
Humidity: 67%   Direction: 200°SSW
Pressure: 30.06"   Gusts: NA
Location:  51.77°N, 0.93°W
Report Text: EGUB 251253Z 20010KT 9999 FEW026 BKN050 14/08 Q1018 BLU NOSIG
Loading
Personal Weather Stations






























Interactive Weather Map
Tropical Storm Tracking
New forecast layout! Learn more

10-Day Weather Forecast

Advertisements
Track Severe Weather on mobile